createdAt,value
2022-09-29T00:00:00.169Z,14.70
2022-09-29T00:02:33.336Z,15.20
2022-09-29T00:05:08.993Z,15.20
2022-09-29T00:07:47.593Z,14.70
2022-09-29T00:10:28.087Z,14.63
2022-09-29T00:13:09.794Z,14.60
2022-09-29T00:16:03.074Z,14.60
2022-09-29T00:18:38.486Z,13.90
2022-09-29T00:21:15.111Z,16.67
2022-09-29T00:23:52.627Z,14.53
2022-09-29T00:26:34.141Z,14.40
2022-09-29T00:29:09.425Z,14.10
2022-09-29T00:31:43.734Z,14.30
2022-09-29T00:34:18.389Z,14.60
2022-09-29T00:36:56.699Z,14.30
2022-09-29T00:39:29.056Z,14.40
2022-09-29T00:42:03.177Z,14.67
2022-09-29T00:45:01.742Z,14.30
2022-09-29T00:47:37.704Z,14.33
2022-09-29T00:50:18.226Z,14.60
2022-09-29T00:52:57.787Z,14.20
2022-09-29T00:55:29.357Z,14.50
2022-09-29T00:58:08.085Z,14.13
2022-09-29T01:00:42.066Z,14.20
2022-09-29T01:03:20.245Z,14.17
2022-09-29T01:05:55.264Z,13.80
2022-09-29T01:08:32.257Z,13.80
2022-09-29T01:11:08.114Z,14.60
2022-09-29T01:13:39.792Z,14.80
2022-09-29T01:16:26.866Z,14.70
2022-09-29T01:19:03.565Z,14.10
2022-09-29T01:21:47.341Z,14.50
2022-09-29T01:24:51.944Z,14.20
2022-09-29T01:27:54.016Z,14.73
2022-09-29T01:30:32.971Z,14.77
2022-09-29T01:33:23.200Z,15.10
2022-09-29T01:35:59.307Z,14.60
2022-09-29T01:38:46.938Z,14.20
2022-09-29T01:41:25.482Z,14.50
2022-09-29T01:44:04.096Z,14.40
2022-09-29T01:46:45.772Z,14.40
2022-09-29T01:49:20.778Z,14.57
2022-09-29T01:52:02.484Z,14.50
2022-09-29T01:54:42.815Z,13.93
2022-09-29T01:57:35.924Z,14.07
2022-09-29T02:00:17.807Z,14.40
2022-09-29T02:03:03.889Z,14.63
2022-09-29T02:05:48.450Z,13.57
2022-09-29T02:08:29.971Z,13.60
2022-09-29T02:11:13.444Z,13.90
2022-09-29T02:13:51.669Z,14.07
2022-09-29T02:16:30.606Z,14.30
2022-09-29T02:19:12.617Z,14.20
2022-09-29T02:21:48.406Z,14.17
2022-09-29T02:24:22.058Z,14.20
2022-09-29T02:27:05.212Z,14.30
2022-09-29T02:29:45.336Z,15.23
2022-09-29T02:32:20.456Z,14.40
2022-09-29T02:34:52.239Z,15.00
2022-09-29T02:37:40.579Z,14.50
2022-09-29T02:40:22.838Z,14.17
2022-09-29T02:43:11.000Z,14.87
2022-09-29T02:45:53.264Z,13.80
2022-09-29T02:48:46.606Z,14.80
2022-09-29T02:51:34.924Z,13.90
2022-09-29T02:54:28.994Z,14.47
2022-09-29T02:57:14.094Z,14.10
2022-09-29T02:59:54.587Z,14.17
2022-09-29T03:02:33.048Z,14.83
2022-09-29T03:05:14.141Z,14.20
2022-09-29T03:07:51.414Z,14.27
2022-09-29T03:10:36.176Z,14.00
2022-09-29T03:13:13.609Z,13.90
2022-09-29T03:15:48.838Z,13.80
2022-09-29T03:18:23.168Z,14.10
2022-09-29T03:20:53.489Z,14.13
2022-09-29T03:23:24.521Z,14.33
2022-09-29T03:26:07.520Z,14.60
2022-09-29T03:28:39.967Z,14.20
2022-09-29T03:31:21.926Z,14.80
2022-09-29T03:33:59.064Z,15.10
2022-09-29T03:36:38.215Z,14.20
2022-09-29T03:39:13.350Z,14.00
2022-09-29T03:41:46.191Z,14.27
2022-09-29T03:44:29.300Z,13.67
2022-09-29T03:47:04.508Z,13.67
2022-09-29T03:49:37.980Z,13.90
2022-09-29T03:52:08.208Z,14.50
2022-09-29T03:54:40.828Z,13.93
2022-09-29T03:57:18.210Z,13.80
2022-09-29T03:59:52.109Z,14.30
2022-09-29T04:02:25.503Z,17.10
2022-09-29T04:04:59.722Z,16.90
2022-09-29T04:07:28.336Z,16.67
2022-09-29T04:10:03.809Z,16.90
2022-09-29T04:12:33.437Z,16.60
2022-09-29T04:15:01.657Z,17.27
2022-09-29T04:17:30.033Z,16.60
2022-09-29T04:19:58.398Z,15.83
2022-09-29T04:22:26.894Z,16.50
2022-09-29T04:24:55.143Z,16.33
2022-09-29T04:27:23.839Z,16.20
2022-09-29T04:29:53.477Z,16.90
2022-09-29T04:32:22.145Z,18.43
2022-09-29T04:34:50.326Z,17.10
2022-09-29T04:37:18.351Z,16.10
2022-09-29T04:39:46.560Z,18.47
2022-09-29T04:42:14.788Z,17.30
2022-09-29T04:44:43.235Z,17.60
2022-09-29T04:47:12.908Z,17.67
2022-09-29T04:49:41.204Z,16.70
2022-09-29T04:52:12.157Z,17.20
2022-09-29T04:54:40.629Z,16.37
2022-09-29T04:57:10.670Z,16.60
2022-09-29T04:59:39.017Z,16.87
2022-09-29T05:02:09.979Z,16.30
2022-09-29T05:04:42.183Z,16.73
2022-09-29T05:07:10.610Z,16.90
2022-09-29T05:09:39.054Z,17.27
2022-09-29T05:12:07.578Z,17.90
2022-09-29T05:14:36.116Z,17.40
2022-09-29T05:17:21.989Z,16.53
2022-09-29T05:19:56.196Z,16.90
2022-09-29T05:22:26.469Z,18.03
2022-09-29T05:24:55.887Z,17.50
2022-09-29T05:27:27.839Z,18.13
2022-09-29T05:30:15.666Z,18.63
2022-09-29T05:32:47.044Z,17.73
2022-09-29T05:35:30.502Z,19.33
2022-09-29T05:38:04.459Z,18.20
2022-09-29T05:40:40.734Z,17.97
2022-09-29T05:43:20.967Z,19.13
2022-09-29T05:45:56.909Z,18.60
2022-09-29T05:48:25.886Z,19.00
2022-09-29T05:51:28.578Z,18.33
2022-09-29T05:54:21.241Z,20.10
2022-09-29T05:56:49.927Z,19.10
2022-09-29T05:59:18.521Z,18.40
2022-09-29T06:01:47.961Z,18.00
2022-09-29T06:04:17.547Z,18.97
2022-09-29T06:06:48.425Z,18.73
2022-09-29T06:09:18.647Z,17.37
2022-09-29T06:11:47.271Z,18.17
2022-09-29T06:14:17.271Z,18.23
2022-09-29T06:16:46.145Z,18.00
2022-09-29T06:19:17.457Z,18.40
2022-09-29T06:21:49.589Z,18.87
2022-09-29T06:24:18.255Z,18.47
2022-09-29T06:26:46.366Z,18.57
2022-09-29T06:29:16.497Z,18.10
2022-09-29T06:31:50.845Z,18.03
2022-09-29T06:34:25.490Z,19.67
2022-09-29T06:37:15.944Z,19.77
2022-09-29T06:39:44.508Z,20.40
2022-09-29T06:42:12.793Z,21.13
2022-09-29T06:44:41.382Z,19.73
2022-09-29T06:47:11.301Z,19.67
2022-09-29T06:49:40.171Z,18.40
2022-09-29T06:52:19.251Z,19.70
2022-09-29T06:54:48.935Z,20.03
2022-09-29T06:57:19.953Z,18.80
2022-09-29T06:59:48.013Z,21.03
2022-09-29T07:02:16.140Z,18.90
2022-09-29T07:04:44.235Z,19.67
2022-09-29T07:07:13.706Z,20.33
2022-09-29T07:09:42.634Z,18.87
2022-09-29T07:12:12.099Z,20.10
2022-09-29T07:14:45.816Z,19.00
2022-09-29T07:17:32.936Z,18.97
2022-09-29T07:20:01.765Z,19.63
2022-09-29T07:22:34.687Z,20.33
2022-09-29T07:25:02.839Z,19.33
2022-09-29T07:27:34.186Z,18.47
2022-09-29T07:30:04.391Z,18.60
2022-09-29T07:32:33.810Z,18.20
2022-09-29T07:35:01.971Z,19.90
2022-09-29T07:37:30.506Z,19.07
2022-09-29T07:40:00.119Z,18.47
2022-09-29T07:42:29.935Z,18.60
2022-09-29T07:45:02.574Z,19.53
2022-09-29T07:47:40.088Z,19.57
2022-09-29T07:50:09.697Z,20.53
2022-09-29T07:52:37.867Z,18.10
2022-09-29T07:55:08.218Z,19.27
2022-09-29T07:57:36.373Z,19.90
2022-09-29T08:00:05.367Z,17.03
2022-09-29T08:02:43.296Z,19.07
2022-09-29T08:05:11.738Z,18.60
2022-09-29T08:07:39.921Z,19.10
2022-09-29T08:10:16.729Z,18.57
2022-09-29T08:12:45.952Z,19.23
2022-09-29T08:15:19.328Z,20.47
2022-09-29T08:17:50.501Z,20.23
2022-09-29T08:20:18.879Z,19.03
2022-09-29T08:22:48.414Z,19.50
2022-09-29T08:25:42.185Z,19.00
2022-09-29T08:28:23.609Z,19.27
2022-09-29T08:31:39.753Z,19.47
2022-09-29T08:34:10.606Z,18.20
2022-09-29T08:36:56.889Z,19.40
2022-09-29T08:39:34.229Z,19.00
2022-09-29T08:42:49.052Z,18.97
2022-09-29T08:45:28.509Z,19.17
2022-09-29T08:48:15.987Z,19.57
2022-09-29T08:54:03.113Z,19.43
2022-09-29T08:56:36.982Z,19.90
2022-09-29T08:59:06.824Z,19.13
2022-09-29T09:01:56.478Z,18.33
2022-09-29T09:04:55.420Z,19.30
2022-09-29T09:08:11.207Z,20.60
2022-09-29T09:11:45.703Z,20.10
2022-09-29T09:18:32.397Z,18.17
2022-09-29T09:21:21.799Z,19.37
2022-09-29T09:23:59.834Z,18.80
2022-09-29T09:26:50.028Z,20.37
2022-09-29T09:29:27.662Z,19.77
2022-09-29T09:32:00.443Z,19.20
2022-09-29T09:34:45.154Z,18.87
2022-09-29T09:37:20.673Z,19.63
2022-09-29T09:40:00.610Z,19.80
2022-09-29T09:42:33.966Z,19.40
2022-09-29T09:45:07.061Z,19.60
2022-09-29T09:47:40.143Z,19.67
2022-09-29T09:50:20.282Z,18.53
2022-09-29T09:52:53.092Z,18.53
2022-09-29T09:55:25.003Z,18.57
2022-09-29T09:58:11.961Z,17.13
2022-09-29T10:01:07.247Z,18.13
2022-09-29T10:03:41.482Z,17.73
2022-09-29T10:06:11.197Z,19.30
2022-09-29T10:08:42.416Z,18.73
2022-09-29T10:11:26.535Z,17.57
2022-09-29T10:14:01.659Z,19.57
2022-09-29T10:16:36.995Z,18.60
2022-09-29T10:19:08.718Z,19.30
2022-09-29T10:21:40.287Z,17.90
2022-09-29T10:24:23.402Z,18.33
2022-09-29T10:26:55.321Z,18.20
2022-09-29T10:29:31.557Z,17.60
2022-09-29T10:32:11.804Z,18.30
2022-09-29T10:34:44.763Z,17.97
2022-09-29T10:37:24.987Z,17.53
2022-09-29T10:40:13.788Z,18.40
2022-09-29T10:42:43.286Z,16.80
2022-09-29T10:45:16.963Z,17.80
2022-09-29T10:47:48.531Z,17.40
2022-09-29T10:50:27.328Z,17.77
2022-09-29T10:53:10.166Z,17.90
2022-09-29T10:55:58.104Z,17.63
2022-09-29T10:58:44.695Z,17.70
2022-09-29T11:01:30.397Z,17.00
2022-09-29T11:04:01.814Z,17.70
2022-09-29T11:06:31.645Z,17.40
2022-09-29T11:09:03.768Z,17.40
2022-09-29T11:11:33.777Z,17.50
2022-09-29T11:14:02.477Z,17.70
2022-09-29T11:16:33.487Z,17.27
2022-09-29T11:19:09.072Z,17.87
2022-09-29T11:22:13.258Z,17.80
2022-09-29T11:25:14.713Z,17.80
2022-09-29T11:27:54.818Z,17.43
2022-09-29T11:30:25.558Z,16.73
2022-09-29T11:33:14.064Z,17.07
2022-09-29T11:35:54.670Z,17.60
2022-09-29T11:38:52.177Z,17.60
2022-09-29T11:41:55.656Z,17.00
2022-09-29T11:44:40.352Z,15.90
2022-09-29T11:47:20.968Z,16.30
2022-09-29T11:50:13.637Z,16.33
2022-09-29T11:53:05.067Z,15.53
2022-09-29T11:55:47.962Z,16.43
2022-09-29T11:58:31.888Z,15.90
2022-09-29T12:01:31.907Z,15.50
2022-09-29T12:04:20.819Z,16.50
2022-09-29T12:07:15.754Z,16.83
2022-09-29T12:10:13.464Z,17.90
2022-09-29T12:12:47.359Z,17.83
2022-09-29T12:15:38.684Z,17.90
2022-09-29T12:18:16.275Z,17.30
2022-09-29T12:20:47.300Z,17.37
2022-09-29T12:23:49.157Z,17.30
2022-09-29T12:26:36.433Z,17.80
2022-09-29T12:29:14.093Z,17.10
2022-09-29T12:32:04.398Z,16.97
2022-09-29T12:34:41.627Z,17.20
2022-09-29T12:37:18.606Z,16.67
2022-09-29T12:40:12.824Z,17.00
2022-09-29T12:43:23.631Z,17.20
2022-09-29T12:46:24.836Z,17.60
2022-09-29T12:49:24.982Z,17.37
2022-09-29T12:51:58.063Z,17.83
2022-09-29T12:55:11.888Z,16.97
2022-09-29T13:01:47.694Z,16.93
2022-09-29T13:05:05.911Z,16.67
2022-09-29T13:08:28.715Z,16.20
2022-09-29T13:11:07.444Z,17.30
2022-09-29T13:14:23.172Z,17.53
2022-09-29T13:17:08.018Z,17.37
2022-09-29T13:19:58.490Z,16.10
2022-09-29T13:23:03.017Z,16.73
2022-09-29T13:25:40.109Z,15.90
2022-09-29T13:28:23.458Z,16.90
2022-09-29T13:30:56.077Z,15.40
2022-09-29T13:33:26.339Z,16.37
2022-09-29T13:35:55.454Z,15.80
2022-09-29T13:38:26.866Z,16.37
2022-09-29T13:41:17.862Z,15.70
2022-09-29T13:44:07.815Z,16.23
2022-09-29T13:46:42.167Z,16.87
2022-09-29T13:49:26.090Z,16.97
2022-09-29T13:51:55.137Z,16.50
2022-09-29T13:54:31.736Z,17.17
2022-09-29T13:57:28.113Z,16.50
2022-09-29T14:00:28.035Z,17.07
2022-09-29T14:03:29.005Z,16.97
2022-09-29T14:06:22.294Z,15.90
2022-09-29T14:08:56.091Z,16.20
2022-09-29T14:11:30.654Z,16.27
2022-09-29T14:14:06.797Z,15.90
2022-09-29T14:16:49.762Z,16.63
2022-09-29T14:19:35.238Z,16.60
2022-09-29T14:22:05.709Z,17.70
2022-09-29T14:24:50.432Z,16.60
2022-09-29T14:27:43.078Z,17.90
2022-09-29T14:30:20.108Z,16.63
2022-09-29T14:32:56.584Z,16.87
2022-09-29T14:35:31.908Z,16.77
2022-09-29T14:38:05.204Z,16.97
2022-09-29T14:40:34.260Z,16.27
2022-09-29T14:43:14.921Z,17.13
2022-09-29T14:46:21.333Z,16.97
2022-09-29T14:49:22.002Z,17.00
2022-09-29T14:52:00.647Z,16.60
2022-09-29T14:54:43.468Z,15.43
2022-09-29T14:57:24.577Z,16.20
2022-09-29T15:00:03.152Z,15.80
2022-09-29T15:02:35.888Z,16.13
2022-09-29T15:05:14.587Z,17.20
2022-09-29T15:07:43.965Z,16.40
2022-09-29T15:10:23.286Z,16.87
2022-09-29T15:12:52.411Z,15.77
2022-09-29T15:15:39.258Z,16.50
2022-09-29T15:18:34.679Z,15.20
2022-09-29T15:21:37.186Z,17.20
2022-09-29T15:24:44.429Z,17.03
2022-09-29T15:27:19.831Z,16.67
2022-09-29T15:29:50.390Z,16.87
2022-09-29T15:32:30.334Z,16.70
2022-09-29T15:35:41.835Z,17.47
2022-09-29T15:41:34.207Z,16.13
2022-09-29T15:44:22.047Z,17.10
2022-09-29T15:46:52.296Z,17.10
2022-09-29T15:49:22.745Z,16.93
2022-09-29T15:52:09.290Z,16.53
2022-09-29T15:54:48.169Z,16.83
2022-09-29T15:58:15.112Z,17.07
2022-09-29T16:00:46.173Z,17.60
2022-09-29T16:03:20.164Z,16.90
2022-09-29T16:06:01.851Z,17.27
2022-09-29T16:08:37.507Z,18.00
2022-09-29T16:11:10.795Z,17.30
2022-09-29T16:13:57.461Z,17.10
2022-09-29T16:16:33.688Z,17.60
2022-09-29T16:19:08.910Z,18.13
2022-09-29T16:21:40.710Z,19.33
2022-09-29T16:24:29.047Z,17.40
2022-09-29T16:27:12.167Z,17.17
2022-09-29T16:29:45.760Z,18.87
2022-09-29T16:32:48.120Z,17.30
2022-09-29T16:35:40.159Z,17.67
2022-09-29T16:38:30.077Z,17.50
2022-09-29T16:40:58.628Z,18.37
2022-09-29T16:43:32.964Z,17.70
2022-09-29T16:46:03.715Z,17.53
2022-09-29T16:48:38.218Z,20.40
2022-09-29T16:51:27.768Z,19.77
2022-09-29T16:54:02.659Z,19.40
2022-09-29T16:56:34.252Z,19.17
2022-09-29T16:59:12.801Z,20.50
2022-09-29T17:01:41.669Z,19.93
2022-09-29T17:04:10.909Z,19.47
2022-09-29T17:06:43.703Z,19.40
2022-09-29T17:09:17.561Z,20.53
2022-09-29T17:11:48.894Z,19.73
2022-09-29T17:14:20.919Z,20.97
2022-09-29T17:16:50.494Z,22.10
2022-09-29T17:19:28.088Z,21.97
2022-09-29T17:21:59.360Z,22.93
2022-09-29T17:24:30.695Z,27.07
2022-09-29T17:27:24.329Z,24.40
2022-09-29T17:30:01.873Z,24.10
2022-09-29T17:35:21.783Z,21.17
2022-09-29T17:37:51.220Z,20.57
2022-09-29T17:40:24.997Z,20.37
2022-09-29T17:42:54.671Z,18.77
2022-09-29T17:45:26.948Z,20.00
2022-09-29T17:47:55.852Z,19.60
2022-09-29T17:50:26.928Z,21.23
2022-09-29T17:52:56.090Z,20.20
2022-09-29T17:55:24.509Z,19.57
2022-09-29T17:58:00.339Z,21.43
2022-09-29T18:00:33.707Z,19.77
2022-09-29T18:03:02.283Z,20.77
2022-09-29T18:05:33.644Z,20.80
2022-09-29T18:08:04.149Z,20.70
2022-09-29T18:10:39.521Z,22.10
2022-09-29T18:13:07.834Z,21.10
2022-09-29T18:15:45.036Z,22.80
2022-09-29T18:18:22.293Z,24.20
2022-09-29T18:21:02.530Z,25.20
2022-09-29T18:23:31.393Z,28.30
2022-09-29T18:25:59.882Z,28.93
2022-09-29T18:28:36.533Z,27.03
2022-09-29T18:31:12.391Z,26.40
2022-09-29T18:33:41.726Z,26.03
2022-09-29T18:36:12.652Z,25.77
2022-09-29T18:38:41.273Z,26.57
2022-09-29T18:41:15.300Z,25.83
2022-09-29T18:43:44.133Z,25.27
2022-09-29T18:46:18.154Z,24.63
2022-09-29T18:48:46.446Z,23.60
2022-09-29T18:51:17.671Z,23.43
2022-09-29T18:53:49.165Z,22.97
2022-09-29T18:56:20.949Z,24.13
2022-09-29T18:59:18.755Z,21.47
2022-09-29T19:01:48.615Z,23.43
2022-09-29T19:04:16.949Z,22.70
2022-09-29T19:06:45.377Z,23.20
2022-09-29T19:09:13.958Z,20.00
2022-09-29T19:11:42.298Z,22.40
2022-09-29T19:14:12.723Z,22.17
2022-09-29T19:16:40.945Z,22.40
2022-09-29T19:19:10.649Z,22.67
2022-09-29T19:21:39.513Z,22.30
2022-09-29T19:24:07.987Z,22.30
2022-09-29T19:26:36.425Z,25.80
2022-09-29T19:29:07.509Z,25.57
2022-09-29T19:31:36.100Z,24.20
2022-09-29T19:34:04.630Z,21.57
2022-09-29T19:36:35.906Z,22.97
2022-09-29T19:39:04.862Z,23.77
2022-09-29T19:41:33.081Z,24.40
2022-09-29T19:44:01.354Z,22.30
2022-09-29T19:46:29.779Z,23.63
2022-09-29T19:48:58.387Z,23.80
2022-09-29T19:51:49.500Z,24.60
2022-09-29T19:54:21.762Z,22.70
2022-09-29T19:56:52.085Z,22.43
2022-09-29T19:59:23.071Z,22.63
2022-09-29T20:01:52.726Z,20.67
2022-09-29T20:04:27.147Z,20.93
2022-09-29T20:06:58.234Z,21.67
2022-09-29T20:09:28.071Z,22.00
2022-09-29T20:11:56.663Z,22.50
2022-09-29T20:14:27.590Z,22.70
2022-09-29T20:16:58.498Z,21.70
2022-09-29T20:19:28.168Z,21.50
2022-09-29T20:21:59.742Z,21.10
2022-09-29T20:24:31.730Z,20.57
2022-09-29T20:27:00.084Z,21.30
2022-09-29T20:29:29.427Z,20.87
2022-09-29T20:31:58.147Z,20.97
2022-09-29T20:34:26.532Z,20.67
2022-09-29T20:36:57.644Z,21.30
2022-09-29T20:39:26.221Z,20.50
2022-09-29T20:41:58.317Z,21.50
2022-09-29T20:44:29.947Z,19.60
2022-09-29T20:46:59.452Z,20.97
2022-09-29T20:49:37.066Z,21.33
2022-09-29T20:52:05.637Z,21.57
2022-09-29T20:54:35.630Z,21.43
2022-09-29T20:57:06.445Z,22.40
2022-09-29T20:59:37.229Z,23.53
2022-09-29T21:02:07.443Z,23.20
2022-09-29T21:04:41.513Z,24.73
2022-09-29T21:07:30.324Z,25.67
2022-09-29T21:10:01.366Z,27.03
2022-09-29T21:12:32.720Z,27.20
2022-09-29T21:15:01.575Z,25.90
2022-09-29T21:17:30.638Z,27.10
2022-09-29T21:20:02.020Z,25.03
2022-09-29T21:22:30.820Z,26.80
2022-09-29T21:25:02.404Z,25.80
2022-09-29T21:27:41.570Z,26.30
2022-09-29T21:30:13.818Z,25.10
2022-09-29T21:32:44.993Z,24.20
2022-09-29T21:35:13.827Z,23.43
2022-09-29T21:37:43.005Z,24.60
2022-09-29T21:40:13.658Z,24.93
2022-09-29T21:42:45.218Z,27.13
2022-09-29T21:45:14.115Z,24.63
2022-09-29T21:47:59.582Z,26.37
2022-09-29T21:50:27.784Z,23.97
2022-09-29T21:52:56.212Z,24.20
2022-09-29T21:55:24.469Z,23.83
2022-09-29T21:57:56.634Z,23.50
2022-09-29T22:00:27.351Z,23.00
2022-09-29T22:02:56.225Z,22.07
2022-09-29T22:05:24.989Z,25.00
2022-09-29T22:07:54.088Z,23.13
2022-09-29T22:10:23.156Z,23.77
2022-09-29T22:12:56.300Z,24.10
2022-09-29T22:15:26.638Z,23.80
2022-09-29T22:17:54.977Z,24.33
2022-09-29T22:20:23.249Z,24.07
2022-09-29T22:22:51.965Z,23.83
2022-09-29T22:25:22.100Z,23.60
2022-09-29T22:27:55.455Z,23.83
2022-09-29T22:30:24.197Z,23.20
2022-09-29T22:32:52.582Z,24.60
2022-09-29T22:35:23.849Z,24.33
2022-09-29T22:37:53.047Z,22.97
2022-09-29T22:40:21.701Z,23.70
2022-09-29T22:42:50.116Z,22.60
2022-09-29T22:45:26.503Z,23.40
2022-09-29T22:48:01.864Z,22.90
2022-09-29T22:50:32.291Z,22.23
2022-09-29T22:53:00.914Z,22.53
2022-09-29T22:55:34.442Z,22.53
2022-09-29T22:58:04.919Z,23.03
2022-09-29T23:00:34.638Z,23.20
2022-09-29T23:03:05.365Z,20.70
2022-09-29T23:05:33.589Z,22.57
2022-09-29T23:08:01.963Z,22.90
2022-09-29T23:10:30.288Z,23.20
2022-09-29T23:12:59.181Z,22.23
2022-09-29T23:15:27.331Z,23.07
2022-09-29T23:17:56.988Z,22.20
2022-09-29T23:20:25.377Z,22.50
2022-09-29T23:22:55.846Z,23.73
2022-09-29T23:25:24.190Z,23.00
2022-09-29T23:27:54.962Z,22.10
2022-09-29T23:30:23.653Z,23.77
2022-09-29T23:32:53.416Z,23.53
2022-09-29T23:35:23.255Z,23.37
2022-09-29T23:38:09.545Z,22.87
2022-09-29T23:40:37.877Z,22.60
2022-09-29T23:43:08.036Z,22.43
2022-09-29T23:45:41.100Z,21.57
2022-09-29T23:48:11.787Z,23.37
2022-09-29T23:50:44.252Z,22.10
2022-09-29T23:53:12.632Z,23.43
2022-09-29T23:55:41.281Z,22.83
2022-09-29T23:58:09.401Z,22.13
